sensor_id;sensor_type;location;lat;lon;timestamp;temperature;humidity
15749;DHT22;7976;52.526;13.326;2023-04-06T00:00:33;5.90;99.90
15749;DHT22;7976;52.526;13.326;2023-04-06T00:03:00;5.90;99.90
15749;DHT22;7976;52.526;13.326;2023-04-06T00:05:27;5.90;99.90
15749;DHT22;7976;52.526;13.326;2023-04-06T00:07:56;5.90;99.90
15749;DHT22;7976;52.526;13.326;2023-04-06T00:10:23;5.80;99.90
15749;DHT22;7976;52.526;13.326;2023-04-06T00:12:51;5.80;99.90
15749;DHT22;7976;52.526;13.326;2023-04-06T00:15:19;5.80;99.90
15749;DHT22;7976;52.526;13.326;2023-04-06T00:17:47;5.80;99.90
15749;DHT22;7976;52.526;13.326;2023-04-06T00:20:14;5.80;99.90
15749;DHT22;7976;52.526;13.326;2023-04-06T00:22:41;5.70;99.90
15749;DHT22;7976;52.526;13.326;2023-04-06T00:25:08;5.80;99.90
15749;DHT22;7976;52.526;13.326;2023-04-06T00:27:36;5.70;99.90
15749;DHT22;7976;52.526;13.326;2023-04-06T00:30:03;5.70;99.90
15749;DHT22;7976;52.526;13.326;2023-04-06T00:32:31;5.70;99.90
15749;DHT22;7976;52.526;13.326;2023-04-06T00:34:59;5.70;99.90
15749;DHT22;7976;52.526;13.326;2023-04-06T00:37:27;5.70;99.90
15749;DHT22;7976;52.526;13.326;2023-04-06T00:39:54;5.70;99.90
15749;DHT22;7976;52.526;13.326;2023-04-06T00:42:21;5.60;99.90
15749;DHT22;7976;52.526;13.326;2023-04-06T00:44:52;5.60;99.90
15749;DHT22;7976;52.526;13.326;2023-04-06T00:47:19;5.60;99.90
15749;DHT22;7976;52.526;13.326;2023-04-06T00:49:47;5.60;99.90
15749;DHT22;7976;52.526;13.326;2023-04-06T00:52:15;5.60;99.90
15749;DHT22;7976;52.526;13.326;2023-04-06T00:54:45;5.50;99.90
15749;DHT22;7976;52.526;13.326;2023-04-06T00:57:13;5.60;99.90
15749;DHT22;7976;52.526;13.326;2023-04-06T00:59:42;5.50;99.90
15749;DHT22;7976;52.526;13.326;2023-04-06T01:02:11;5.50;99.90
15749;DHT22;7976;52.526;13.326;2023-04-06T01:04:44;5.50;99.90
15749;DHT22;7976;52.526;13.326;2023-04-06T01:07:21;5.50;99.90
15749;DHT22;7976;52.526;13.326;2023-04-06T01:10:02;5.50;99.90
15749;DHT22;7976;52.526;13.326;2023-04-06T01:12:31;5.50;99.90
15749;DHT22;7976;52.526;13.326;2023-04-06T01:15:00;5.50;99.90
15749;DHT22;7976;52.526;13.326;2023-04-06T01:17:30;5.40;99.90
15749;DHT22;7976;52.526;13.326;2023-04-06T01:20:06;5.40;99.90
15749;DHT22;7976;52.526;13.326;2023-04-06T01:22:35;5.50;99.90
15749;DHT22;7976;52.526;13.326;2023-04-06T01:25:03;5.50;99.90
15749;DHT22;7976;52.526;13.326;2023-04-06T01:27:41;5.40;99.90
15749;DHT22;7976;52.526;13.326;2023-04-06T01:30:11;5.40;99.90
15749;DHT22;7976;52.526;13.326;2023-04-06T01:32:43;5.40;99.90
15749;DHT22;7976;52.526;13.326;2023-04-06T01:35:13;5.40;99.90
15749;DHT22;7976;52.526;13.326;2023-04-06T01:37:49;5.40;99.90
15749;DHT22;7976;52.526;13.326;2023-04-06T01:40:23;5.40;99.90
15749;DHT22;7976;52.526;13.326;2023-04-06T01:42:51;5.30;99.90
15749;DHT22;7976;52.526;13.326;2023-04-06T01:45:26;5.30;99.90
15749;DHT22;7976;52.526;13.326;2023-04-06T01:47:58;5.30;99.90
15749;DHT22;7976;52.526;13.326;2023-04-06T01:50:26;5.30;99.90
15749;DHT22;7976;52.526;13.326;2023-04-06T01:52:55;5.20;99.90
15749;DHT22;7976;52.526;13.326;2023-04-06T01:55:23;5.20;99.90
15749;DHT22;7976;52.526;13.326;2023-04-06T01:58:14;5.20;99.90
15749;DHT22;7976;52.526;13.326;2023-04-06T02:00:41;5.20;99.90
15749;DHT22;7976;52.526;13.326;2023-04-06T02:03:13;5.10;99.90
15749;DHT22;7976;52.526;13.326;2023-04-06T02:05:44;5.10;99.90
15749;DHT22;7976;52.526;13.326;2023-04-06T02:08:20;5.10;99.90
15749;DHT22;7976;52.526;13.326;2023-04-06T02:10:47;5.10;99.90
15749;DHT22;7976;52.526;13.326;2023-04-06T02:13:24;5.10;99.90
15749;DHT22;7976;52.526;13.326;2023-04-06T02:15:52;5.00;99.90
15749;DHT22;7976;52.526;13.326;2023-04-06T02:18:19;5.10;99.90
15749;DHT22;7976;52.526;13.326;2023-04-06T02:20:46;5.10;99.90
15749;DHT22;7976;52.526;13.326;2023-04-06T02:23:13;5.10;99.90
15749;DHT22;7976;52.526;13.326;2023-04-06T02:25:41;5.00;99.90
15749;DHT22;7976;52.526;13.326;2023-04-06T02:28:08;5.10;99.90
15749;DHT22;7976;52.526;13.326;2023-04-06T02:30:35;5.00;99.90
15749;DHT22;7976;52.526;13.326;2023-04-06T02:33:03;5.10;99.90
15749;DHT22;7976;52.526;13.326;2023-04-06T02:35:38;5.00;99.90
15749;DHT22;7976;52.526;13.326;2023-04-06T02:38:06;5.00;99.90
15749;DHT22;7976;52.526;13.326;2023-04-06T02:40:33;4.90;99.90
15749;DHT22;7976;52.526;13.326;2023-04-06T02:43:09;4.90;99.90
15749;DHT22;7976;52.526;13.326;2023-04-06T02:45:36;4.80;99.90
15749;DHT22;7976;52.526;13.326;2023-04-06T02:48:04;4.80;99.90
15749;DHT22;7976;52.526;13.326;2023-04-06T02:50:32;4.80;99.90
15749;DHT22;7976;52.526;13.326;2023-04-06T02:53:02;4.80;99.90
15749;DHT22;7976;52.526;13.326;2023-04-06T02:55:29;4.70;99.90
15749;DHT22;7976;52.526;13.326;2023-04-06T02:57:56;4.70;99.90
15749;DHT22;7976;52.526;13.326;2023-04-06T03:00:29;4.70;99.90
15749;DHT22;7976;52.526;13.326;2023-04-06T03:02:56;4.70;99.90
15749;DHT22;7976;52.526;13.326;2023-04-06T03:05:25;4.70;99.90
15749;DHT22;7976;52.526;13.326;2023-04-06T03:07:52;4.70;99.90
15749;DHT22;7976;52.526;13.326;2023-04-06T03:10:35;4.70;99.90
15749;DHT22;7976;52.526;13.326;2023-04-06T03:13:02;4.70;99.90
15749;DHT22;7976;52.526;13.326;2023-04-06T03:15:43;4.70;99.90
15749;DHT22;7976;52.526;13.326;2023-04-06T03:18:14;4.60;99.90
15749;DHT22;7976;52.526;13.326;2023-04-06T03:20:45;4.60;99.90
15749;DHT22;7976;52.526;13.326;2023-04-06T03:23:14;4.60;99.90
15749;DHT22;7976;52.526;13.326;2023-04-06T03:25:44;4.60;99.90
15749;DHT22;7976;52.526;13.326;2023-04-06T03:28:15;4.60;99.90
15749;DHT22;7976;52.526;13.326;2023-04-06T03:30:54;4.50;99.90
15749;DHT22;7976;52.526;13.326;2023-04-06T03:33:37;4.50;99.90
15749;DHT22;7976;52.526;13.326;2023-04-06T03:36:04;4.40;99.90
15749;DHT22;7976;52.526;13.326;2023-04-06T03:38:37;4.30;99.90
15749;DHT22;7976;52.526;13.326;2023-04-06T03:41:09;4.30;99.90
15749;DHT22;7976;52.526;13.326;2023-04-06T03:43:38;4.30;99.90
15749;DHT22;7976;52.526;13.326;2023-04-06T03:46:06;4.20;99.90
15749;DHT22;7976;52.526;13.326;2023-04-06T03:48:33;4.20;99.90
15749;DHT22;7976;52.526;13.326;2023-04-06T03:51:03;4.20;99.90
15749;DHT22;7976;52.526;13.326;2023-04-06T03:53:30;4.10;99.90
15749;DHT22;7976;52.526;13.326;2023-04-06T03:55:57;4.10;99.90
15749;DHT22;7976;52.526;13.326;2023-04-06T03:58:24;4.00;99.90
15749;DHT22;7976;52.526;13.326;2023-04-06T04:00:51;4.00;99.90
15749;DHT22;7976;52.526;13.326;2023-04-06T04:03:19;4.00;99.90
15749;DHT22;7976;52.526;13.326;2023-04-06T04:05:48;4.00;99.90
15749;DHT22;7976;52.526;13.326;2023-04-06T04:08:16;4.00;99.90
15749;DHT22;7976;52.526;13.326;2023-04-06T04:10:43;3.90;99.90
15749;DHT22;7976;52.526;13.326;2023-04-06T04:13:10;3.90;99.90
15749;DHT22;7976;52.526;13.326;2023-04-06T04:15:37;3.90;99.90
15749;DHT22;7976;52.526;13.326;2023-04-06T04:18:04;3.80;99.90
15749;DHT22;7976;52.526;13.326;2023-04-06T04:20:33;3.80;99.90
15749;DHT22;7976;52.526;13.326;2023-04-06T04:23:00;3.80;99.90
15749;DHT22;7976;52.526;13.326;2023-04-06T04:25:30;3.80;99.90
15749;DHT22;7976;52.526;13.326;2023-04-06T04:27:57;3.80;99.90
15749;DHT22;7976;52.526;13.326;2023-04-06T04:30:24;3.80;99.90
15749;DHT22;7976;52.526;13.326;2023-04-06T04:32:51;3.80;99.90
15749;DHT22;7976;52.526;13.326;2023-04-06T04:35:20;3.80;99.90
15749;DHT22;7976;52.526;13.326;2023-04-06T04:37:50;3.70;99.90
15749;DHT22;7976;52.526;13.326;2023-04-06T04:40:17;3.70;99.90
15749;DHT22;7976;52.526;13.326;2023-04-06T04:42:51;3.70;99.90
15749;DHT22;7976;52.526;13.326;2023-04-06T04:45:27;3.60;99.90
15749;DHT22;7976;52.526;13.326;2023-04-06T04:47:55;3.60;99.90
15749;DHT22;7976;52.526;13.326;2023-04-06T04:50:25;3.50;99.90
15749;DHT22;7976;52.526;13.326;2023-04-06T04:52:57;3.60;99.90
15749;DHT22;7976;52.526;13.326;2023-04-06T04:55:25;3.60;99.90
15749;DHT22;7976;52.526;13.326;2023-04-06T04:57:56;3.60;99.90
15749;DHT22;7976;52.526;13.326;2023-04-06T05:00:35;3.60;99.90
15749;DHT22;7976;52.526;13.326;2023-04-06T05:03:03;3.50;99.90
15749;DHT22;7976;52.526;13.326;2023-04-06T05:05:35;3.50;99.90
15749;DHT22;7976;52.526;13.326;2023-04-06T05:08:04;3.50;99.90
15749;DHT22;7976;52.526;13.326;2023-04-06T05:10:44;3.50;99.90
15749;DHT22;7976;52.526;13.326;2023-04-06T05:13:12;3.60;99.90
15749;DHT22;7976;52.526;13.326;2023-04-06T05:15:39;3.60;99.90
15749;DHT22;7976;52.526;13.326;2023-04-06T05:18:17;3.60;99.90
15749;DHT22;7976;52.526;13.326;2023-04-06T05:20:46;3.60;99.90
15749;DHT22;7976;52.526;13.326;2023-04-06T05:23:15;3.60;99.90
15749;DHT22;7976;52.526;13.326;2023-04-06T05:25:42;3.60;99.90
15749;DHT22;7976;52.526;13.326;2023-04-06T05:28:15;3.60;99.90
15749;DHT22;7976;52.526;13.326;2023-04-06T05:30:44;3.60;99.90
15749;DHT22;7976;52.526;13.326;2023-04-06T05:33:13;3.70;99.90
15749;DHT22;7976;52.526;13.326;2023-04-06T05:35:53;3.70;99.90
15749;DHT22;7976;52.526;13.326;2023-04-06T05:38:21;3.70;99.90
15749;DHT22;7976;52.526;13.326;2023-04-06T05:40:49;3.80;99.90
15749;DHT22;7976;52.526;13.326;2023-04-06T05:43:19;3.80;99.90
15749;DHT22;7976;52.526;13.326;2023-04-06T05:45:52;3.90;99.90
15749;DHT22;7976;52.526;13.326;2023-04-06T05:48:20;3.90;99.90
15749;DHT22;7976;52.526;13.326;2023-04-06T05:50:48;3.90;99.90
15749;DHT22;7976;52.526;13.326;2023-04-06T05:53:17;4.00;99.90
15749;DHT22;7976;52.526;13.326;2023-04-06T05:55:53;4.10;99.90
15749;DHT22;7976;52.526;13.326;2023-04-06T05:58:20;4.20;99.90
15749;DHT22;7976;52.526;13.326;2023-04-06T06:00:50;4.30;99.90
15749;DHT22;7976;52.526;13.326;2023-04-06T06:03:22;4.30;99.90
15749;DHT22;7976;52.526;13.326;2023-04-06T06:05:52;4.40;99.90
15749;DHT22;7976;52.526;13.326;2023-04-06T06:08:27;4.40;99.90
15749;DHT22;7976;52.526;13.326;2023-04-06T06:10:56;4.40;99.90
15749;DHT22;7976;52.526;13.326;2023-04-06T06:13:24;4.40;99.90
15749;DHT22;7976;52.526;13.326;2023-04-06T06:15:54;4.50;99.90
15749;DHT22;7976;52.526;13.326;2023-04-06T06:18:22;4.60;99.90
15749;DHT22;7976;52.526;13.326;2023-04-06T06:20:52;4.60;99.90
15749;DHT22;7976;52.526;13.326;2023-04-06T06:23:19;4.60;99.90
15749;DHT22;7976;52.526;13.326;2023-04-06T06:25:46;4.70;99.90
15749;DHT22;7976;52.526;13.326;2023-04-06T06:28:15;4.80;99.90
15749;DHT22;7976;52.526;13.326;2023-04-06T06:30:42;4.80;99.90
15749;DHT22;7976;52.526;13.326;2023-04-06T06:33:09;4.90;99.90
15749;DHT22;7976;52.526;13.326;2023-04-06T06:35:36;4.90;99.90
15749;DHT22;7976;52.526;13.326;2023-04-06T06:38:07;5.00;99.90
15749;DHT22;7976;52.526;13.326;2023-04-06T06:40:34;5.10;99.90
15749;DHT22;7976;52.526;13.326;2023-04-06T06:43:01;5.20;99.90
15749;DHT22;7976;52.526;13.326;2023-04-06T06:45:34;5.20;99.90
15749;DHT22;7976;52.526;13.326;2023-04-06T06:48:01;5.40;99.90
15749;DHT22;7976;52.526;13.326;2023-04-06T06:50:28;5.50;99.90
15749;DHT22;7976;52.526;13.326;2023-04-06T06:52:56;5.60;99.90
15749;DHT22;7976;52.526;13.326;2023-04-06T06:55:22;5.60;99.90
15749;DHT22;7976;52.526;13.326;2023-04-06T06:57:51;5.70;99.90
15749;DHT22;7976;52.526;13.326;2023-04-06T07:00:18;5.80;99.90
15749;DHT22;7976;52.526;13.326;2023-04-06T07:02:48;5.90;99.90
15749;DHT22;7976;52.526;13.326;2023-04-06T07:05:16;5.90;99.90
15749;DHT22;7976;52.526;13.326;2023-04-06T07:07:43;6.00;99.90
15749;DHT22;7976;52.526;13.326;2023-04-06T07:10:10;6.00;99.90
15749;DHT22;7976;52.526;13.326;2023-04-06T07:12:37;6.10;99.90
15749;DHT22;7976;52.526;13.326;2023-04-06T07:15:05;6.20;99.90
15749;DHT22;7976;52.526;13.326;2023-04-06T07:17:33;6.30;99.90
15749;DHT22;7976;52.526;13.326;2023-04-06T07:20:02;6.40;99.90
15749;DHT22;7976;52.526;13.326;2023-04-06T07:22:30;6.50;99.90
15749;DHT22;7976;52.526;13.326;2023-04-06T07:24:57;6.60;99.90
15749;DHT22;7976;52.526;13.326;2023-04-06T07:27:24;6.70;99.90
15749;DHT22;7976;52.526;13.326;2023-04-06T07:29:51;6.80;99.90
15749;DHT22;7976;52.526;13.326;2023-04-06T07:32:18;6.90;99.90
15749;DHT22;7976;52.526;13.326;2023-04-06T07:34:45;7.00;99.90
15749;DHT22;7976;52.526;13.326;2023-04-06T07:37:13;7.20;99.90
15749;DHT22;7976;52.526;13.326;2023-04-06T07:39:40;7.30;99.90
15749;DHT22;7976;52.526;13.326;2023-04-06T07:42:07;7.40;99.90
15749;DHT22;7976;52.526;13.326;2023-04-06T07:44:34;7.40;99.90
15749;DHT22;7976;52.526;13.326;2023-04-06T07:47:01;7.40;99.90
15749;DHT22;7976;52.526;13.326;2023-04-06T07:49:28;7.50;99.90
15749;DHT22;7976;52.526;13.326;2023-04-06T07:51:56;7.60;99.90
15749;DHT22;7976;52.526;13.326;2023-04-06T07:54:24;7.70;99.90
15749;DHT22;7976;52.526;13.326;2023-04-06T07:56:51;7.80;99.90
15749;DHT22;7976;52.526;13.326;2023-04-06T07:59:17;7.90;99.90
15749;DHT22;7976;52.526;13.326;2023-04-06T08:01:47;7.90;99.90
15749;DHT22;7976;52.526;13.326;2023-04-06T08:04:14;8.00;99.90
15749;DHT22;7976;52.526;13.326;2023-04-06T08:06:41;8.10;99.90
15749;DHT22;7976;52.526;13.326;2023-04-06T08:09:08;8.10;99.90
15749;DHT22;7976;52.526;13.326;2023-04-06T08:11:36;8.20;99.90
15749;DHT22;7976;52.526;13.326;2023-04-06T08:14:03;8.30;99.90
15749;DHT22;7976;52.526;13.326;2023-04-06T08:16:30;8.40;99.90
15749;DHT22;7976;52.526;13.326;2023-04-06T08:18:56;8.50;99.90
15749;DHT22;7976;52.526;13.326;2023-04-06T08:21:23;8.50;99.90
15749;DHT22;7976;52.526;13.326;2023-04-06T08:23:50;8.50;99.90
15749;DHT22;7976;52.526;13.326;2023-04-06T08:26:17;8.60;99.90
15749;DHT22;7976;52.526;13.326;2023-04-06T08:28:45;8.70;99.90
15749;DHT22;7976;52.526;13.326;2023-04-06T08:31:11;8.80;99.90
15749;DHT22;7976;52.526;13.326;2023-04-06T08:33:38;8.80;99.90
15749;DHT22;7976;52.526;13.326;2023-04-06T08:36:10;8.80;99.90
15749;DHT22;7976;52.526;13.326;2023-04-06T08:38:38;8.80;99.90
15749;DHT22;7976;52.526;13.326;2023-04-06T08:41:09;8.90;99.90
15749;DHT22;7976;52.526;13.326;2023-04-06T08:43:42;9.00;99.90
15749;DHT22;7976;52.526;13.326;2023-04-06T08:46:11;9.10;99.90
15749;DHT22;7976;52.526;13.326;2023-04-06T08:48:40;9.10;99.90
15749;DHT22;7976;52.526;13.326;2023-04-06T08:51:08;9.20;99.90
15749;DHT22;7976;52.526;13.326;2023-04-06T08:53:35;9.30;99.90
15749;DHT22;7976;52.526;13.326;2023-04-06T08:56:03;9.30;99.90
15749;DHT22;7976;52.526;13.326;2023-04-06T08:58:34;9.30;99.90
15749;DHT22;7976;52.526;13.326;2023-04-06T09:01:06;9.40;99.90
15749;DHT22;7976;52.526;13.326;2023-04-06T09:03:39;9.50;99.90
15749;DHT22;7976;52.526;13.326;2023-04-06T09:06:07;9.50;99.90
15749;DHT22;7976;52.526;13.326;2023-04-06T09:08:35;9.60;99.90
15749;DHT22;7976;52.526;13.326;2023-04-06T09:11:03;9.60;99.90
15749;DHT22;7976;52.526;13.326;2023-04-06T09:13:30;9.70;99.90
15749;DHT22;7976;52.526;13.326;2023-04-06T09:16:01;9.70;99.90
15749;DHT22;7976;52.526;13.326;2023-04-06T09:18:30;9.80;99.90
15749;DHT22;7976;52.526;13.326;2023-04-06T09:21:00;9.90;99.90
15749;DHT22;7976;52.526;13.326;2023-04-06T09:23:28;9.90;99.90
15749;DHT22;7976;52.526;13.326;2023-04-06T09:26:05;10.00;99.90
15749;DHT22;7976;52.526;13.326;2023-04-06T09:28:47;10.00;99.90
15749;DHT22;7976;52.526;13.326;2023-04-06T09:31:21;10.10;99.90
15749;DHT22;7976;52.526;13.326;2023-04-06T09:33:49;10.20;99.90
15749;DHT22;7976;52.526;13.326;2023-04-06T09:36:19;10.20;99.90
15749;DHT22;7976;52.526;13.326;2023-04-06T09:38:54;10.30;99.90
15749;DHT22;7976;52.526;13.326;2023-04-06T09:41:23;10.30;99.90
15749;DHT22;7976;52.526;13.326;2023-04-06T09:43:52;10.40;99.90
15749;DHT22;7976;52.526;13.326;2023-04-06T09:46:31;10.50;99.80
15749;DHT22;7976;52.526;13.326;2023-04-06T09:49:00;10.50;99.80
15749;DHT22;7976;52.526;13.326;2023-04-06T09:51:31;10.50;98.10
15749;DHT22;7976;52.526;13.326;2023-04-06T09:54:03;10.50;96.90
15749;DHT22;7976;52.526;13.326;2023-04-06T09:56:44;10.50;97.70
15749;DHT22;7976;52.526;13.326;2023-04-06T09:59:14;10.70;98.90
15749;DHT22;7976;52.526;13.326;2023-04-06T10:01:49;10.80;98.30
15749;DHT22;7976;52.526;13.326;2023-04-06T10:04:25;10.80;97.60
15749;DHT22;7976;52.526;13.326;2023-04-06T10:07:03;10.90;97.90
15749;DHT22;7976;52.526;13.326;2023-04-06T10:09:33;10.90;97.40
15749;DHT22;7976;52.526;13.326;2023-04-06T10:12:04;10.90;98.10
15749;DHT22;7976;52.526;13.326;2023-04-06T10:14:33;11.00;97.50
15749;DHT22;7976;52.526;13.326;2023-04-06T10:17:03;11.20;96.90
15749;DHT22;7976;52.526;13.326;2023-04-06T10:19:37;11.20;96.60
15749;DHT22;7976;52.526;13.326;2023-04-06T10:22:18;11.30;95.70
15749;DHT22;7976;52.526;13.326;2023-04-06T10:24:51;11.40;95.70
15749;DHT22;7976;52.526;13.326;2023-04-06T10:27:27;11.40;94.40
15749;DHT22;7976;52.526;13.326;2023-04-06T10:30:01;11.40;93.60
15749;DHT22;7976;52.526;13.326;2023-04-06T10:32:36;11.40;94.20
15749;DHT22;7976;52.526;13.326;2023-04-06T10:35:08;11.40;93.70
15749;DHT22;7976;52.526;13.326;2023-04-06T10:37:50;11.50;93.20
15749;DHT22;7976;52.526;13.326;2023-04-06T10:40:22;11.60;93.40
15749;DHT22;7976;52.526;13.326;2023-04-06T10:42:51;11.40;93.80
15749;DHT22;7976;52.526;13.326;2023-04-06T10:45:20;11.30;94.50
15749;DHT22;7976;52.526;13.326;2023-04-06T10:47:48;11.10;93.40
15749;DHT22;7976;52.526;13.326;2023-04-06T10:50:16;10.80;92.50
15749;DHT22;7976;52.526;13.326;2023-04-06T10:52:44;10.70;92.90
15749;DHT22;7976;52.526;13.326;2023-04-06T10:55:15;10.70;91.50
15749;DHT22;7976;52.526;13.326;2023-04-06T10:57:43;10.90;91.70
15749;DHT22;7976;52.526;13.326;2023-04-06T11:00:13;11.10;92.20
15749;DHT22;7976;52.526;13.326;2023-04-06T11:02:40;11.30;92.10
15749;DHT22;7976;52.526;13.326;2023-04-06T11:05:08;11.50;92.30
15749;DHT22;7976;52.526;13.326;2023-04-06T11:07:39;11.70;92.20
15749;DHT22;7976;52.526;13.326;2023-04-06T11:10:07;11.80;91.80
15749;DHT22;7976;52.526;13.326;2023-04-06T11:12:36;11.80;91.50
15749;DHT22;7976;52.526;13.326;2023-04-06T11:15:04;11.60;91.00
15749;DHT22;7976;52.526;13.326;2023-04-06T11:17:33;11.40;90.80
15749;DHT22;7976;52.526;13.326;2023-04-06T11:20:02;11.10;90.60
15749;DHT22;7976;52.526;13.326;2023-04-06T11:22:30;10.90;90.30
15749;DHT22;7976;52.526;13.326;2023-04-06T11:25:05;10.90;90.50
15749;DHT22;7976;52.526;13.326;2023-04-06T11:27:33;11.10;90.80
15749;DHT22;7976;52.526;13.326;2023-04-06T11:30:04;11.30;90.80
15749;DHT22;7976;52.526;13.326;2023-04-06T11:32:39;11.50;90.80
15749;DHT22;7976;52.526;13.326;2023-04-06T11:35:10;11.60;91.50
15749;DHT22;7976;52.526;13.326;2023-04-06T11:37:37;11.80;91.30
15749;DHT22;7976;52.526;13.326;2023-04-06T11:40:08;12.00;90.60
15749;DHT22;7976;52.526;13.326;2023-04-06T11:42:36;12.00;89.30
15749;DHT22;7976;52.526;13.326;2023-04-06T11:45:07;11.80;89.30
15749;DHT22;7976;52.526;13.326;2023-04-06T11:47:36;11.60;90.20
15749;DHT22;7976;52.526;13.326;2023-04-06T11:50:08;11.40;88.40
15749;DHT22;7976;52.526;13.326;2023-04-06T11:52:36;11.10;88.60
15749;DHT22;7976;52.526;13.326;2023-04-06T11:55:12;11.10;89.00
15749;DHT22;7976;52.526;13.326;2023-04-06T11:57:41;11.20;90.30
15749;DHT22;7976;52.526;13.326;2023-04-06T12:00:11;11.50;90.90
15749;DHT22;7976;52.526;13.326;2023-04-06T12:02:39;11.80;91.10
15749;DHT22;7976;52.526;13.326;2023-04-06T12:05:07;12.10;91.40
15749;DHT22;7976;52.526;13.326;2023-04-06T12:07:34;12.40;91.40
15749;DHT22;7976;52.526;13.326;2023-04-06T12:10:02;12.50;88.70
15749;DHT22;7976;52.526;13.326;2023-04-06T12:12:30;12.50;88.10
15749;DHT22;7976;52.526;13.326;2023-04-06T12:14:57;12.50;90.00
15749;DHT22;7976;52.526;13.326;2023-04-06T12:17:29;12.40;89.50
15749;DHT22;7976;52.526;13.326;2023-04-06T12:19:58;12.50;88.70
15749;DHT22;7976;52.526;13.326;2023-04-06T12:22:24;12.60;89.80
15749;DHT22;7976;52.526;13.326;2023-04-06T12:24:51;12.60;87.30
15749;DHT22;7976;52.526;13.326;2023-04-06T12:27:25;12.50;86.80
15749;DHT22;7976;52.526;13.326;2023-04-06T12:29:55;12.50;86.80
15749;DHT22;7976;52.526;13.326;2023-04-06T12:32:22;12.50;86.10
15749;DHT22;7976;52.526;13.326;2023-04-06T12:34:51;12.60;86.30
15749;DHT22;7976;52.526;13.326;2023-04-06T12:37:19;12.60;86.70
15749;DHT22;7976;52.526;13.326;2023-04-06T12:39:46;12.60;85.60
15749;DHT22;7976;52.526;13.326;2023-04-06T12:42:13;12.60;85.20
15749;DHT22;7976;52.526;13.326;2023-04-06T12:44:40;12.50;86.80
15749;DHT22;7976;52.526;13.326;2023-04-06T12:47:08;12.50;86.80
15749;DHT22;7976;52.526;13.326;2023-04-06T12:49:36;12.60;86.10
15749;DHT22;7976;52.526;13.326;2023-04-06T12:52:04;12.50;84.60
15749;DHT22;7976;52.526;13.326;2023-04-06T12:54:31;12.40;83.10
15749;DHT22;7976;52.526;13.326;2023-04-06T12:56:58;12.30;83.10
15749;DHT22;7976;52.526;13.326;2023-04-06T12:59:28;12.20;83.40
15749;DHT22;7976;52.526;13.326;2023-04-06T13:02:00;12.10;82.90
15749;DHT22;7976;52.526;13.326;2023-04-06T13:04:26;12.00;82.70
15749;DHT22;7976;52.526;13.326;2023-04-06T13:06:53;11.90;82.90
15749;DHT22;7976;52.526;13.326;2023-04-06T13:09:21;11.90;83.30
15749;DHT22;7976;52.526;13.326;2023-04-06T13:11:48;11.90;84.30
15749;DHT22;7976;52.526;13.326;2023-04-06T13:14:16;12.10;84.80
15749;DHT22;7976;52.526;13.326;2023-04-06T13:16:42;12.20;84.30
15749;DHT22;7976;52.526;13.326;2023-04-06T13:19:10;12.20;84.50
15749;DHT22;7976;52.526;13.326;2023-04-06T13:21:37;12.10;84.30
15749;DHT22;7976;52.526;13.326;2023-04-06T13:24:04;12.10;83.70
15749;DHT22;7976;52.526;13.326;2023-04-06T13:26:32;12.00;83.70
15749;DHT22;7976;52.526;13.326;2023-04-06T13:28:59;12.10;84.20
15749;DHT22;7976;52.526;13.326;2023-04-06T13:31:27;12.20;84.60
15749;DHT22;7976;52.526;13.326;2023-04-06T13:33:54;12.20;83.90
15749;DHT22;7976;52.526;13.326;2023-04-06T13:36:21;12.20;82.90
15749;DHT22;7976;52.526;13.326;2023-04-06T13:38:48;12.10;83.60
15749;DHT22;7976;52.526;13.326;2023-04-06T13:41:19;12.10;83.80
15749;DHT22;7976;52.526;13.326;2023-04-06T13:43:49;12.30;84.40
15749;DHT22;7976;52.526;13.326;2023-04-06T13:46:16;12.30;83.40
15749;DHT22;7976;52.526;13.326;2023-04-06T13:48:43;12.40;83.30
15749;DHT22;7976;52.526;13.326;2023-04-06T13:51:11;12.40;82.90
15749;DHT22;7976;52.526;13.326;2023-04-06T13:53:39;12.40;82.50
15749;DHT22;7976;52.526;13.326;2023-04-06T13:56:07;12.40;82.20
15749;DHT22;7976;52.526;13.326;2023-04-06T13:58:34;12.30;81.80
15749;DHT22;7976;52.526;13.326;2023-04-06T14:01:04;12.20;82.70
15749;DHT22;7976;52.526;13.326;2023-04-06T14:03:32;12.20;82.50
15749;DHT22;7976;52.526;13.326;2023-04-06T14:05:59;12.20;83.40
15749;DHT22;7976;52.526;13.326;2023-04-06T14:08:26;12.20;83.20
15749;DHT22;7976;52.526;13.326;2023-04-06T14:10:53;12.30;83.50
15749;DHT22;7976;52.526;13.326;2023-04-06T14:13:21;12.30;83.00
15749;DHT22;7976;52.526;13.326;2023-04-06T14:15:53;12.30;82.80
15749;DHT22;7976;52.526;13.326;2023-04-06T14:18:22;12.30;82.60
15749;DHT22;7976;52.526;13.326;2023-04-06T14:20:54;12.10;82.60
15749;DHT22;7976;52.526;13.326;2023-04-06T14:23:21;12.00;83.10
15749;DHT22;7976;52.526;13.326;2023-04-06T14:25:48;12.00;83.40
15749;DHT22;7976;52.526;13.326;2023-04-06T14:28:15;12.00;83.50
15749;DHT22;7976;52.526;13.326;2023-04-06T14:30:42;12.00;84.30
15749;DHT22;7976;52.526;13.326;2023-04-06T14:33:09;12.00;84.30
15749;DHT22;7976;52.526;13.326;2023-04-06T14:35:39;12.00;84.70
15749;DHT22;7976;52.526;13.326;2023-04-06T14:38:06;11.90;85.20
15749;DHT22;7976;52.526;13.326;2023-04-06T14:40:35;11.80;84.70
15749;DHT22;7976;52.526;13.326;2023-04-06T14:43:03;11.70;84.50
15749;DHT22;7976;52.526;13.326;2023-04-06T14:45:33;11.60;85.00
15749;DHT22;7976;52.526;13.326;2023-04-06T14:48:02;11.60;85.10
15749;DHT22;7976;52.526;13.326;2023-04-06T14:50:31;11.70;84.80
15749;DHT22;7976;52.526;13.326;2023-04-06T14:52:59;11.70;84.90
15749;DHT22;7976;52.526;13.326;2023-04-06T14:55:26;11.70;85.20
15749;DHT22;7976;52.526;13.326;2023-04-06T14:57:53;11.70;85.80
15749;DHT22;7976;52.526;13.326;2023-04-06T15:00:20;11.70;85.40
15749;DHT22;7976;52.526;13.326;2023-04-06T15:02:47;11.70;85.30
15749;DHT22;7976;52.526;13.326;2023-04-06T15:05:17;11.60;85.20
15749;DHT22;7976;52.526;13.326;2023-04-06T15:07:43;11.60;85.60
15749;DHT22;7976;52.526;13.326;2023-04-06T15:10:12;11.70;86.10
15749;DHT22;7976;52.526;13.326;2023-04-06T15:12:38;11.70;85.90
15749;DHT22;7976;52.526;13.326;2023-04-06T15:15:06;11.70;85.40
15749;DHT22;7976;52.526;13.326;2023-04-06T15:17:33;11.70;85.20
15749;DHT22;7976;52.526;13.326;2023-04-06T15:20:00;11.60;84.70
15749;DHT22;7976;52.526;13.326;2023-04-06T15:22:28;11.50;85.00
15749;DHT22;7976;52.526;13.326;2023-04-06T15:24:55;11.40;85.30
15749;DHT22;7976;52.526;13.326;2023-04-06T15:27:23;11.40;86.00
15749;DHT22;7976;52.526;13.326;2023-04-06T15:29:50;11.40;85.70
15749;DHT22;7976;52.526;13.326;2023-04-06T15:32:16;11.30;85.80
15749;DHT22;7976;52.526;13.326;2023-04-06T15:34:43;11.40;86.40
15749;DHT22;7976;52.526;13.326;2023-04-06T15:37:10;11.40;86.40
15749;DHT22;7976;52.526;13.326;2023-04-06T15:39:37;11.50;86.40
15749;DHT22;7976;52.526;13.326;2023-04-06T15:42:04;11.50;86.30
15749;DHT22;7976;52.526;13.326;2023-04-06T15:44:32;11.40;86.20
15749;DHT22;7976;52.526;13.326;2023-04-06T15:46:59;11.40;86.10
15749;DHT22;7976;52.526;13.326;2023-04-06T15:49:26;11.40;86.40
15749;DHT22;7976;52.526;13.326;2023-04-06T15:51:52;11.40;86.70